createdAt,value
2022-10-18T00:02:23.654Z,7.78
2022-10-18T00:04:49.938Z,8.70
2022-10-18T00:07:16.166Z,8.60
2022-10-18T00:09:42.474Z,9.50
2022-10-18T00:12:08.695Z,9.10
2022-10-18T00:14:34.908Z,8.50
2022-10-18T00:17:01.332Z,7.72
2022-10-18T00:19:29.294Z,7.50
2022-10-18T00:21:55.814Z,7.13
2022-10-18T00:24:22.036Z,7.22
2022-10-18T00:26:48.254Z,7.07
2022-10-18T00:29:15.398Z,6.28
2022-10-18T00:31:42.931Z,7.13
2022-10-18T00:34:13.672Z,7.13
2022-10-18T00:39:06.786Z,6.95
2022-10-18T00:41:33.911Z,6.72
2022-10-18T00:44:12.073Z,6.40
2022-10-18T00:46:45.720Z,6.32
2022-10-18T00:49:20.332Z,6.50
2022-10-18T00:51:48.294Z,6.88
2022-10-18T00:54:15.166Z,6.47
2022-10-18T00:56:41.525Z,7.03
2022-10-18T00:59:07.880Z,6.53
2022-10-18T01:01:34.329Z,7.25
2022-10-18T01:04:00.665Z,7.80
2022-10-18T01:06:28.186Z,6.85
2022-10-18T01:08:55.656Z,6.63
2022-10-18T01:11:21.853Z,6.53
2022-10-18T01:14:02.278Z,6.65
2022-10-18T01:16:31.242Z,6.78
2022-10-18T01:19:03.752Z,6.97
2022-10-18T01:21:54.200Z,6.90
2022-10-18T01:24:30.675Z,7.78
2022-10-18T01:26:59.735Z,7.20
2022-10-18T01:29:31.990Z,6.53
2022-10-18T01:32:03.247Z,7.43
2022-10-18T01:34:33.584Z,7.50
2022-10-18T01:37:01.276Z,7.35
2022-10-18T01:39:32.968Z,7.82
2022-10-18T01:42:01.285Z,10.90
2022-10-18T01:44:29.056Z,9.93
2022-10-18T01:46:56.783Z,9.35
2022-10-18T01:49:23.939Z,8.73
2022-10-18T01:51:50.163Z,9.48
2022-10-18T01:54:19.155Z,9.57
2022-10-18T01:56:56.672Z,9.50
2022-10-18T01:59:41.502Z,9.40
2022-10-18T02:02:10.847Z,9.98
2022-10-18T02:04:57.306Z,9.63
2022-10-18T02:07:33.913Z,9.38
2022-10-18T02:10:09.108Z,9.45
2022-10-18T02:12:36.409Z,9.07
2022-10-18T02:15:04.678Z,10.73
2022-10-18T02:17:31.974Z,9.45
2022-10-18T02:19:59.736Z,9.80
2022-10-18T02:22:27.564Z,9.35
2022-10-18T02:24:55.976Z,9.75
2022-10-18T02:27:22.347Z,9.85
2022-10-18T02:29:49.035Z,9.85
2022-10-18T02:32:20.730Z,10.23
2022-10-18T02:34:52.620Z,9.73
2022-10-18T02:37:19.649Z,9.63
2022-10-18T02:39:47.699Z,10.25
2022-10-18T02:42:14.436Z,9.73
2022-10-18T02:44:40.699Z,9.63
2022-10-18T02:47:07.985Z,9.95
2022-10-18T02:49:34.232Z,9.57
2022-10-18T02:52:00.497Z,9.95
2022-10-18T02:54:26.724Z,9.90
2022-10-18T02:56:52.964Z,9.07
2022-10-18T02:59:19.307Z,9.27
2022-10-18T03:01:45.598Z,8.90
2022-10-18T03:04:11.865Z,8.65
2022-10-18T03:06:38.135Z,8.57
2022-10-18T03:09:05.285Z,9.07
2022-10-18T03:11:31.610Z,8.95
2022-10-18T03:13:57.901Z,8.98
2022-10-18T03:16:24.314Z,8.98
2022-10-18T03:18:50.627Z,8.98
2022-10-18T03:21:16.858Z,8.52
2022-10-18T03:23:43.593Z,8.07
2022-10-18T03:26:10.186Z,8.25
2022-10-18T03:28:36.496Z,7.95
2022-10-18T03:31:03.875Z,8.50
2022-10-18T03:33:30.886Z,7.72
2022-10-18T03:35:57.162Z,7.97
2022-10-18T03:38:23.440Z,8.00
2022-10-18T03:40:49.668Z,8.10
2022-10-18T03:43:15.942Z,8.18
2022-10-18T03:45:42.176Z,8.05
2022-10-18T03:48:08.458Z,7.68
2022-10-18T03:50:34.678Z,7.55
2022-10-18T03:53:01.020Z,8.30
2022-10-18T03:55:27.397Z,8.18
2022-10-18T03:57:53.639Z,7.47
2022-10-18T04:00:19.896Z,6.90
2022-10-18T04:02:46.347Z,7.22
2022-10-18T04:05:12.963Z,6.18
2022-10-18T04:07:39.185Z,6.30
2022-10-18T04:10:05.820Z,5.85
2022-10-18T04:12:32.259Z,7.07
2022-10-18T04:14:58.695Z,6.40
2022-10-18T04:17:25.015Z,5.80
2022-10-18T04:19:51.264Z,6.10
2022-10-18T04:22:17.507Z,5.95
2022-10-18T04:24:43.745Z,5.53
2022-10-18T04:27:10.015Z,6.03
2022-10-18T04:29:36.234Z,5.63
2022-10-18T04:32:02.572Z,6.05
2022-10-18T04:34:28.800Z,5.60
2022-10-18T04:36:55.071Z,6.07
2022-10-18T04:39:21.523Z,5.80
2022-10-18T04:41:47.762Z,5.85
2022-10-18T04:44:14.168Z,5.80
2022-10-18T04:46:40.389Z,5.80
2022-10-18T04:49:06.602Z,6.75
2022-10-18T04:51:32.836Z,6.30
2022-10-18T04:53:59.057Z,6.15
2022-10-18T04:56:25.327Z,6.85
2022-10-18T04:58:51.557Z,7.10
2022-10-18T05:01:18.885Z,7.40
2022-10-18T05:03:45.296Z,7.97
2022-10-18T05:06:11.504Z,7.10
2022-10-18T05:08:38.408Z,6.90
2022-10-18T05:11:04.883Z,6.53
2022-10-18T05:13:31.215Z,6.70
2022-10-18T05:15:59.366Z,7.00
2022-10-18T05:18:25.684Z,7.00
2022-10-18T05:20:51.927Z,6.47
2022-10-18T05:23:18.138Z,5.93
2022-10-18T05:25:44.398Z,6.30
2022-10-18T05:28:27.197Z,6.10
2022-10-18T05:31:00.431Z,5.43
2022-10-18T05:33:26.651Z,5.80
2022-10-18T05:35:52.868Z,5.43
2022-10-18T05:38:19.081Z,7.22
2022-10-18T05:40:45.381Z,6.10
2022-10-18T05:43:11.658Z,6.03
2022-10-18T05:45:37.934Z,5.82
2022-10-18T05:48:05.420Z,5.80
2022-10-18T05:50:35.502Z,5.60
2022-10-18T05:53:11.968Z,5.88
2022-10-18T05:55:38.915Z,6.35
2022-10-18T05:58:05.173Z,6.40
2022-10-18T06:00:31.445Z,6.00
2022-10-18T06:03:00.217Z,6.05
2022-10-18T06:05:26.862Z,6.63
2022-10-18T06:07:53.217Z,6.25
2022-10-18T06:10:19.495Z,6.45
2022-10-18T06:12:45.708Z,7.47
2022-10-18T06:15:11.906Z,6.25
2022-10-18T06:17:38.495Z,6.05
2022-10-18T06:20:05.457Z,5.75
2022-10-18T06:22:31.709Z,6.68
2022-10-18T06:24:57.945Z,7.00
2022-10-18T06:27:24.231Z,7.72
2022-10-18T06:29:50.492Z,7.20
2022-10-18T06:32:16.862Z,7.72
2022-10-18T06:34:43.070Z,6.72
2022-10-18T06:37:09.333Z,7.68
2022-10-18T06:39:35.561Z,7.38
2022-10-18T06:42:01.778Z,7.20
2022-10-18T06:44:28.008Z,6.95
2022-10-18T06:46:54.263Z,6.43
2022-10-18T06:49:20.538Z,6.50
2022-10-18T06:51:46.811Z,7.50
2022-10-18T06:54:17.990Z,6.40
2022-10-18T06:56:44.918Z,5.43
2022-10-18T06:59:11.342Z,5.68
2022-10-18T07:01:37.695Z,5.90
2022-10-18T07:04:04.109Z,5.78
2022-10-18T07:06:30.396Z,6.00
2022-10-18T07:08:57.040Z,5.85
2022-10-18T07:11:25.406Z,5.22
2022-10-18T07:13:53.987Z,5.95
2022-10-18T07:16:20.362Z,5.57
2022-10-18T07:18:48.504Z,5.82
2022-10-18T07:21:15.623Z,5.28
2022-10-18T07:23:43.263Z,5.28
2022-10-18T07:26:16.719Z,4.57
2022-10-18T07:28:43.896Z,5.07
2022-10-18T07:31:11.108Z,5.20
2022-10-18T07:33:40.132Z,4.25
2022-10-18T07:36:07.969Z,4.82
2022-10-18T07:38:34.657Z,5.85
2022-10-18T07:41:01.758Z,5.35
2022-10-18T07:43:28.182Z,4.68
2022-10-18T07:45:55.172Z,4.90
2022-10-18T07:48:21.434Z,4.80
2022-10-18T07:50:47.651Z,4.97
2022-10-18T07:53:14.014Z,4.68
2022-10-18T07:55:40.312Z,4.65
2022-10-18T07:58:06.530Z,5.55
2022-10-18T08:00:32.899Z,5.30
2022-10-18T08:02:59.493Z,7.85
2022-10-18T08:05:26.969Z,8.80
2022-10-18T08:07:53.672Z,9.02
2022-10-18T08:10:20.652Z,9.65
2022-10-18T08:12:46.920Z,9.40
2022-10-18T08:15:13.785Z,10.18
2022-10-18T08:17:40.023Z,10.68
2022-10-18T08:20:12.279Z,10.52
2022-10-18T08:22:55.447Z,20.40
2022-10-18T08:25:24.025Z,24.08
2022-10-18T08:27:50.297Z,23.52
2022-10-18T08:30:16.612Z,18.70
2022-10-18T08:32:42.931Z,16.52
2022-10-18T08:35:09.506Z,14.30
2022-10-18T08:37:35.778Z,13.45
2022-10-18T08:40:02.012Z,9.02
2022-10-18T08:42:43.379Z,10.43
2022-10-18T08:45:23.291Z,11.07
2022-10-18T08:47:57.717Z,9.68
2022-10-18T08:50:26.788Z,8.40
2022-10-18T08:53:01.515Z,7.75
2022-10-18T08:55:30.866Z,8.25
2022-10-18T08:57:57.741Z,7.70
2022-10-18T09:00:25.247Z,9.65
2022-10-18T09:03:10.120Z,9.88
2022-10-18T09:05:56.700Z,10.48
2022-10-18T09:08:22.909Z,9.85
2022-10-18T09:10:49.141Z,11.05
2022-10-18T09:13:34.229Z,9.25
2022-10-18T09:16:05.005Z,8.93
2022-10-18T09:21:01.297Z,8.15
2022-10-18T09:23:44.299Z,7.28
2022-10-18T09:26:14.217Z,6.70
2022-10-18T09:28:55.951Z,7.07
2022-10-18T09:31:26.118Z,6.47
2022-10-18T09:33:58.518Z,6.20
2022-10-18T09:36:26.684Z,6.30
2022-10-18T09:39:00.460Z,6.05
2022-10-18T09:41:39.398Z,5.43
2022-10-18T09:44:24.379Z,4.80
2022-10-18T09:47:00.143Z,4.10
2022-10-18T09:49:30.971Z,4.15
2022-10-18T09:51:58.791Z,4.30
2022-10-18T09:54:31.783Z,3.40
2022-10-18T09:57:06.478Z,3.47
2022-10-18T09:59:32.723Z,3.20
2022-10-18T10:01:59.020Z,3.65
2022-10-18T10:04:25.304Z,2.90
2022-10-18T10:06:52.596Z,4.20
2022-10-18T10:09:24.706Z,3.70
2022-10-18T10:11:51.964Z,3.25
2022-10-18T10:14:22.967Z,2.80
2022-10-18T10:17:03.205Z,2.67
2022-10-18T10:19:34.447Z,2.53
2022-10-18T10:22:05.912Z,2.35
2022-10-18T10:24:40.308Z,1.55
2022-10-18T10:27:07.708Z,1.45
2022-10-18T10:29:48.202Z,1.05
2022-10-18T10:32:16.129Z,0.90
2022-10-18T10:34:44.733Z,1.63
2022-10-18T10:37:31.928Z,1.30
2022-10-18T10:40:23.949Z,1.10
2022-10-18T10:43:04.397Z,1.13
2022-10-18T10:45:57.634Z,1.15
2022-10-18T10:48:24.507Z,0.90
2022-10-18T10:50:55.246Z,1.30
2022-10-18T10:53:33.833Z,0.80
2022-10-18T10:56:00.422Z,0.77
2022-10-18T10:58:28.025Z,1.02
2022-10-18T11:00:55.603Z,1.00
2022-10-18T11:03:29.032Z,1.10
2022-10-18T11:05:57.680Z,1.10
2022-10-18T11:08:25.532Z,1.02
2022-10-18T11:11:00.660Z,0.90
2022-10-18T11:13:35.473Z,1.27
2022-10-18T11:16:05.724Z,1.25
2022-10-18T11:18:36.633Z,1.10
2022-10-18T11:21:08.050Z,1.20
2022-10-18T11:23:35.387Z,1.40
2022-10-18T11:26:10.467Z,1.05
2022-10-18T11:28:36.706Z,1.08
2022-10-18T11:31:17.992Z,1.17
2022-10-18T11:34:10.193Z,1.25
2022-10-18T11:37:15.966Z,1.50
2022-10-18T11:40:02.164Z,1.30
2022-10-18T11:42:28.396Z,0.80
2022-10-18T11:45:06.964Z,1.42
2022-10-18T11:47:42.358Z,1.20
2022-10-18T11:50:14.136Z,1.08
2022-10-18T11:52:47.038Z,1.13
2022-10-18T11:55:16.243Z,1.05
2022-10-18T11:57:42.595Z,1.00
2022-10-18T12:00:17.190Z,1.13
2022-10-18T12:02:46.302Z,0.82
2022-10-18T12:05:23.168Z,1.15
2022-10-18T12:07:58.590Z,0.90
2022-10-18T12:10:37.849Z,0.98
2022-10-18T12:13:17.896Z,1.10
2022-10-18T12:15:44.642Z,0.93
2022-10-18T12:18:14.765Z,0.75
2022-10-18T12:20:43.139Z,0.63
2022-10-18T12:23:16.968Z,1.05
2022-10-18T12:25:45.431Z,0.77
2022-10-18T12:28:30.573Z,0.80
2022-10-18T12:30:56.802Z,0.88
2022-10-18T12:33:28.796Z,0.88
2022-10-18T12:36:03.403Z,0.85
2022-10-18T12:38:31.589Z,0.80
2022-10-18T12:40:58.709Z,0.77
2022-10-18T12:43:33.987Z,0.57
2022-10-18T12:46:01.237Z,0.88
2022-10-18T12:48:29.196Z,0.80
2022-10-18T12:50:57.956Z,0.80
2022-10-18T12:53:26.515Z,0.70
2022-10-18T12:55:53.739Z,0.68
2022-10-18T12:58:27.767Z,0.75
2022-10-18T13:00:55.597Z,1.02
2022-10-18T13:03:25.003Z,0.60
2022-10-18T13:05:53.977Z,1.00
2022-10-18T13:08:27.199Z,1.05
2022-10-18T13:11:16.766Z,1.17
2022-10-18T13:13:45.900Z,0.50
2022-10-18T13:16:26.971Z,0.75
2022-10-18T13:18:57.626Z,0.60
2022-10-18T13:21:34.572Z,0.57
2022-10-18T13:24:00.763Z,0.57
2022-10-18T13:26:31.941Z,0.93
2022-10-18T13:29:13.496Z,0.70
2022-10-18T13:31:43.484Z,0.90
2022-10-18T13:34:22.848Z,0.82
2022-10-18T13:37:15.692Z,0.70
2022-10-18T13:39:42.100Z,0.70
2022-10-18T13:42:14.488Z,0.60
2022-10-18T13:44:41.832Z,0.80
2022-10-18T13:47:09.760Z,0.73
2022-10-18T13:49:39.053Z,0.70
2022-10-18T13:52:10.760Z,1.10
2022-10-18T13:54:46.542Z,0.60
2022-10-18T13:57:31.369Z,0.60
2022-10-18T13:59:57.557Z,0.57
2022-10-18T14:02:51.298Z,1.10
2022-10-18T14:05:27.083Z,0.47
2022-10-18T14:07:58.179Z,0.57
2022-10-18T14:10:43.682Z,0.63
2022-10-18T14:13:20.240Z,0.63
2022-10-18T14:15:49.295Z,0.85
2022-10-18T14:18:18.790Z,0.80
2022-10-18T14:21:01.483Z,0.88
2022-10-18T14:23:36.476Z,1.07
2022-10-18T14:26:06.727Z,1.08
2022-10-18T14:28:55.133Z,0.85
2022-10-18T14:31:19.338Z,0.90
2022-10-18T14:33:46.792Z,0.70
2022-10-18T14:36:21.523Z,1.15
2022-10-18T14:38:58.746Z,0.55
2022-10-18T14:41:28.968Z,0.68
2022-10-18T14:44:13.962Z,0.77
2022-10-18T14:46:49.379Z,0.70
2022-10-18T14:49:16.168Z,0.85
2022-10-18T14:51:43.254Z,0.90
2022-10-18T14:54:17.384Z,0.70
2022-10-18T14:56:43.866Z,1.00
2022-10-18T14:59:16.850Z,1.00
2022-10-18T15:01:51.286Z,1.30
2022-10-18T15:04:17.524Z,1.60
2022-10-18T15:06:43.959Z,1.15
2022-10-18T15:09:11.420Z,1.10
2022-10-18T15:11:38.819Z,1.10
2022-10-18T15:14:08.651Z,1.00
2022-10-18T15:16:38.319Z,1.10
2022-10-18T15:19:04.583Z,1.40
2022-10-18T15:21:31.288Z,1.45
2022-10-18T15:24:18.320Z,1.30
2022-10-18T15:26:45.428Z,1.10
2022-10-18T15:29:16.632Z,1.45
2022-10-18T15:31:44.375Z,2.05
2022-10-18T15:34:11.773Z,2.00
2022-10-18T15:36:38.367Z,1.70
2022-10-18T15:39:05.919Z,1.40
2022-10-18T15:41:38.947Z,1.70
2022-10-18T15:44:13.160Z,1.88
2022-10-18T15:46:40.399Z,1.48
2022-10-18T15:49:25.019Z,1.45
2022-10-18T15:52:03.424Z,0.98
2022-10-18T15:54:30.398Z,1.00
2022-10-18T15:56:56.708Z,1.00
2022-10-18T15:59:25.036Z,1.63
2022-10-18T16:01:51.487Z,1.92
2022-10-18T16:04:23.120Z,1.88
2022-10-18T16:06:49.764Z,1.60
2022-10-18T16:09:17.552Z,2.20
2022-10-18T16:11:44.185Z,1.23
2022-10-18T16:14:10.463Z,1.58
2022-10-18T16:16:36.778Z,1.50
2022-10-18T16:19:03.226Z,15.70
2022-10-18T16:21:31.355Z,7.53
2022-10-18T16:23:57.936Z,2.60
2022-10-18T16:26:24.823Z,1.58
2022-10-18T16:28:51.150Z,1.52
2022-10-18T16:31:18.976Z,1.42
2022-10-18T16:33:45.966Z,1.77
2022-10-18T16:36:22.742Z,1.00
2022-10-18T16:38:48.996Z,1.00
2022-10-18T16:41:15.836Z,1.35
2022-10-18T16:43:46.380Z,1.40
2022-10-18T16:46:32.483Z,1.50
2022-10-18T16:48:58.751Z,1.55
2022-10-18T16:51:25.149Z,1.88
2022-10-18T16:53:53.290Z,1.90
2022-10-18T16:56:26.746Z,1.70
2022-10-18T16:58:53.225Z,1.92
2022-10-18T17:01:21.596Z,1.88
2022-10-18T17:03:48.147Z,1.45
2022-10-18T17:06:15.727Z,1.80
2022-10-18T17:08:42.175Z,1.50
2022-10-18T17:11:09.318Z,1.60
2022-10-18T17:13:35.596Z,2.80
2022-10-18T17:16:03.703Z,5.60
2022-10-18T17:18:30.641Z,5.13
2022-10-18T17:20:59.247Z,6.85
2022-10-18T17:23:25.598Z,8.30
2022-10-18T17:26:05.371Z,7.13
2022-10-18T17:28:35.283Z,6.22
2022-10-18T17:31:01.625Z,7.00
2022-10-18T17:33:27.840Z,6.00
2022-10-18T17:35:54.078Z,6.32
2022-10-18T17:38:20.319Z,7.80
2022-10-18T17:40:46.540Z,8.63
2022-10-18T17:43:13.667Z,7.47
2022-10-18T17:45:47.907Z,7.43
2022-10-18T17:48:14.127Z,6.72
2022-10-18T17:50:40.975Z,7.30
2022-10-18T17:53:07.281Z,4.53
2022-10-18T17:55:34.354Z,4.97
2022-10-18T17:58:00.611Z,4.07
2022-10-18T18:00:28.366Z,3.22
2022-10-18T18:02:58.076Z,3.08
2022-10-18T18:05:24.821Z,27.20
2022-10-18T18:07:51.048Z,3.92
2022-10-18T18:10:17.346Z,3.25
2022-10-18T18:12:45.428Z,3.20
2022-10-18T18:15:12.312Z,3.00
2022-10-18T18:17:55.927Z,2.92
2022-10-18T18:20:24.291Z,3.60
2022-10-18T18:22:50.747Z,2.72
2022-10-18T18:25:17.186Z,3.53
2022-10-18T18:27:43.539Z,3.95
2022-10-18T18:30:10.056Z,4.60
2022-10-18T18:32:36.370Z,4.80
2022-10-18T18:35:02.791Z,3.20
2022-10-18T18:37:29.026Z,3.83
2022-10-18T18:39:55.265Z,3.83
2022-10-18T18:42:22.456Z,4.43
2022-10-18T18:44:49.883Z,4.40
2022-10-18T18:47:16.199Z,3.90
2022-10-18T18:49:42.480Z,3.75
2022-10-18T18:52:08.712Z,3.40
2022-10-18T18:54:34.944Z,3.60
2022-10-18T18:57:05.135Z,2.55
2022-10-18T18:59:31.377Z,2.55
2022-10-18T19:01:57.682Z,2.30
2022-10-18T19:04:23.953Z,3.03
2022-10-18T19:06:50.176Z,2.90
2022-10-18T19:09:22.337Z,2.92
2022-10-18T19:11:49.687Z,3.25
2022-10-18T19:14:16.289Z,3.80
2022-10-18T19:16:49.561Z,3.10
2022-10-18T19:19:17.303Z,3.33
2022-10-18T19:21:53.622Z,4.30
2022-10-18T19:24:20.687Z,4.22
2022-10-18T19:27:00.323Z,4.00
2022-10-18T19:29:28.127Z,3.67
2022-10-18T19:31:55.775Z,4.22
2022-10-18T19:34:22.814Z,3.63
2022-10-18T19:36:49.368Z,2.80
2022-10-18T19:39:18.506Z,2.55
2022-10-18T19:41:49.371Z,2.30
2022-10-18T19:46:41.729Z,2.08
2022-10-18T19:49:07.978Z,2.75
2022-10-18T19:51:34.243Z,1.73
2022-10-18T19:54:00.928Z,1.80
2022-10-18T19:56:27.858Z,2.55
2022-10-18T19:58:54.698Z,3.38
2022-10-18T20:01:20.959Z,4.05
2022-10-18T20:03:47.691Z,3.97
2022-10-18T20:06:13.933Z,4.00
2022-10-18T20:08:40.239Z,4.30
2022-10-18T20:11:10.476Z,4.63
2022-10-18T20:13:37.074Z,4.40
2022-10-18T20:16:04.363Z,4.35
2022-10-18T20:18:30.947Z,5.38
2022-10-18T20:20:57.187Z,9.23
2022-10-18T20:23:23.447Z,9.20
2022-10-18T20:25:59.730Z,8.48
2022-10-18T20:28:26.418Z,7.38
2022-10-18T20:31:06.484Z,7.35
2022-10-18T20:33:33.188Z,7.77
2022-10-18T20:36:04.228Z,7.50
2022-10-18T20:38:31.043Z,5.18
2022-10-18T20:41:01.395Z,4.40
2022-10-18T20:43:28.308Z,3.47
2022-10-18T20:45:57.795Z,3.08
2022-10-18T20:48:24.304Z,2.28
2022-10-18T20:50:50.591Z,1.35
2022-10-18T20:53:16.997Z,1.20
2022-10-18T20:55:43.582Z,1.48
2022-10-18T20:58:10.268Z,4.20
2022-10-18T21:00:36.618Z,2.20
2022-10-18T21:03:03.014Z,2.00
2022-10-18T21:05:30.211Z,2.17
2022-10-18T21:07:56.723Z,1.90
2022-10-18T21:10:23.441Z,1.70
2022-10-18T21:12:49.651Z,1.42
2022-10-18T21:15:16.128Z,1.90
2022-10-18T21:17:42.338Z,1.50
2022-10-18T21:20:08.948Z,1.55
2022-10-18T21:22:35.354Z,1.65
2022-10-18T21:25:01.773Z,1.85
2022-10-18T21:27:27.979Z,1.65
2022-10-18T21:29:54.579Z,1.98
2022-10-18T21:32:20.793Z,1.90
2022-10-18T21:34:47.059Z,1.80
2022-10-18T21:37:13.269Z,1.52
2022-10-18T21:39:39.532Z,8.60
2022-10-18T21:42:05.757Z,13.95
2022-10-18T21:44:31.982Z,13.93
2022-10-18T21:46:58.218Z,11.45
2022-10-18T21:49:25.032Z,9.90
2022-10-18T21:51:51.352Z,7.75
2022-10-18T21:54:17.655Z,4.00
2022-10-18T21:56:44.650Z,3.50
2022-10-18T21:59:11.832Z,3.20
2022-10-18T22:01:38.360Z,3.53
2022-10-18T22:04:17.057Z,4.10
2022-10-18T22:06:43.276Z,3.50
2022-10-18T22:09:09.514Z,3.00
2022-10-18T22:11:42.853Z,3.17
2022-10-18T22:14:09.411Z,2.72
2022-10-18T22:16:35.831Z,2.40
2022-10-18T22:19:03.591Z,2.53
2022-10-18T22:21:29.921Z,3.45
2022-10-18T22:23:57.084Z,5.57
2022-10-18T22:26:27.446Z,6.13
2022-10-18T22:28:55.015Z,6.00
2022-10-18T22:31:22.158Z,7.28
2022-10-18T22:33:52.508Z,8.98
2022-10-18T22:36:18.723Z,11.25
2022-10-18T22:38:44.939Z,10.40
2022-10-18T22:41:11.588Z,12.07
2022-10-18T22:43:38.038Z,19.77
2022-10-18T22:46:06.015Z,16.90
2022-10-18T22:48:33.111Z,9.10
2022-10-18T22:50:59.729Z,6.43
2022-10-18T22:53:26.197Z,5.32
2022-10-18T22:55:52.580Z,5.13
2022-10-18T22:58:19.319Z,3.75
2022-10-18T23:00:45.697Z,3.35
2022-10-18T23:03:14.128Z,3.88
2022-10-18T23:05:41.463Z,3.92
2022-10-18T23:08:08.683Z,4.78
2022-10-18T23:10:36.673Z,3.90
2022-10-18T23:13:03.414Z,4.22
2022-10-18T23:15:29.742Z,4.32
2022-10-18T23:17:57.123Z,3.40
2022-10-18T23:20:23.443Z,3.38
2022-10-18T23:22:49.712Z,3.58
2022-10-18T23:25:15.988Z,3.80
2022-10-18T23:30:09.922Z,4.05
2022-10-18T23:32:37.383Z,3.70
2022-10-18T23:35:03.786Z,4.32
2022-10-18T23:37:30.076Z,3.63
2022-10-18T23:39:56.440Z,3.08
2022-10-18T23:42:22.674Z,2.95
2022-10-18T23:44:48.945Z,2.75
2022-10-18T23:47:15.367Z,3.55
2022-10-18T23:49:41.741Z,3.25
2022-10-18T23:52:08.047Z,3.17
2022-10-18T23:54:34.327Z,3.33
2022-10-18T23:57:00.564Z,3.10
2022-10-18T23:59:26.863Z,3.60
